createdAt,value
2022-12-23T00:02:16.388Z,99870.88
2022-12-23T00:05:19.507Z,99864.91
2022-12-23T00:08:23.439Z,99861.00
2022-12-23T00:11:26.894Z,99854.19
2022-12-23T00:14:47.110Z,99858.63
2022-12-23T00:17:51.108Z,99862.00
2022-12-23T00:21:03.341Z,99859.22
2022-12-23T00:24:09.496Z,99860.81
2022-12-23T00:27:12.083Z,99857.41
2022-12-23T00:30:14.887Z,99861.47
2022-12-23T00:33:23.381Z,99856.47
2022-12-23T00:36:28.245Z,99848.66
2022-12-23T00:39:52.081Z,99853.06
2022-12-23T00:42:57.434Z,99854.59
2022-12-23T00:46:00.106Z,99859.88
2022-12-23T00:49:21.698Z,99861.47
2022-12-23T00:52:24.270Z,99860.81
2022-12-23T00:55:26.904Z,99869.41
2022-12-23T00:58:29.588Z,99861.63
2022-12-23T01:01:50.111Z,99859.03
2022-12-23T01:05:11.606Z,99864.00
2022-12-23T01:08:14.317Z,99861.47
2022-12-23T01:11:16.884Z,99856.97
2022-12-23T01:14:19.471Z,99859.22
2022-12-23T01:17:22.249Z,99858.56
2022-12-23T01:20:26.411Z,99859.78
2022-12-23T01:23:29.018Z,99855.16
2022-12-23T01:26:31.661Z,99848.22
2022-12-23T01:29:34.253Z,99858.66
2022-12-23T01:32:37.004Z,99853.63
2022-12-23T01:35:40.943Z,99857.72
2022-12-23T01:38:43.753Z,99859.50
2022-12-23T01:42:03.790Z,99854.59
2022-12-23T01:45:12.281Z,99859.09
2022-12-23T01:48:18.395Z,99853.72
2022-12-23T01:51:27.167Z,99857.06
2022-12-23T01:54:29.759Z,99856.97
2022-12-23T01:57:32.482Z,99855.94
2022-12-23T02:00:52.833Z,99857.84
2022-12-23T02:03:58.642Z,99862.34
2022-12-23T02:07:20.318Z,99861.38
2022-12-23T02:10:30.234Z,99856.19
2022-12-23T02:13:39.282Z,99852.34
2022-12-23T02:16:50.090Z,99859.44
2022-12-23T02:20:17.713Z,99859.56
2022-12-23T02:24:03.563Z,99862.34
2022-12-23T02:27:19.973Z,99868.00
2022-12-23T02:30:43.804Z,99861.22
2022-12-23T02:33:59.247Z,99852.25
2022-12-23T02:37:08.271Z,99859.50
2022-12-23T02:40:14.464Z,99859.63
2022-12-23T02:43:21.755Z,99862.13
2022-12-23T02:46:34.047Z,99869.22
2022-12-23T02:49:40.820Z,99865.91
2022-12-23T02:52:46.510Z,99878.94
2022-12-23T02:55:51.498Z,99870.53
2022-12-23T02:58:57.807Z,99874.03
2022-12-23T03:02:02.441Z,99875.88
2022-12-23T03:05:05.639Z,99872.19
2022-12-23T03:08:14.687Z,99880.09
2022-12-23T03:11:18.711Z,99886.44
2022-12-23T03:14:42.942Z,99886.56
2022-12-23T03:18:00.274Z,99899.09
2022-12-23T03:21:09.584Z,99893.16
2022-12-23T03:24:22.727Z,99889.41
2022-12-23T03:27:28.950Z,99892.06
2022-12-23T03:30:35.288Z,99904.31
2022-12-23T03:33:43.253Z,99898.97
2022-12-23T03:36:50.194Z,99900.81
2022-12-23T03:39:55.721Z,99909.63
2022-12-23T03:43:04.192Z,99913.09
2022-12-23T03:46:12.198Z,99912.50
2022-12-23T03:49:20.521Z,99901.00
2022-12-23T03:52:28.825Z,99907.81
2022-12-23T03:55:35.459Z,99899.09
2022-12-23T03:58:43.475Z,99905.25
2022-12-23T04:01:56.100Z,99906.97
2022-12-23T04:05:18.252Z,99906.03
2022-12-23T04:08:25.234Z,99902.53
2022-12-23T04:11:27.877Z,99904.34
2022-12-23T04:14:31.420Z,99904.09
2022-12-23T04:17:34.499Z,99911.97
2022-12-23T04:20:38.585Z,99915.47
2022-12-23T04:23:41.213Z,99919.03
2022-12-23T04:26:43.798Z,99920.75
2022-12-23T04:29:46.672Z,99918.09
2022-12-23T04:32:49.275Z,99920.81
2022-12-23T04:35:53.221Z,99928.59
2022-12-23T04:38:55.805Z,99926.03
2022-12-23T04:41:58.403Z,99924.09
2022-12-23T04:45:00.976Z,99939.06
2022-12-23T04:48:03.574Z,99939.03
2022-12-23T04:51:07.566Z,99950.16
2022-12-23T04:54:10.176Z,99933.38
2022-12-23T04:57:12.829Z,99938.81
2022-12-23T05:00:16.400Z,99921.13
2022-12-23T05:03:19.123Z,99927.47
2022-12-23T05:06:23.185Z,99925.34
2022-12-23T05:09:25.892Z,99925.34
2022-12-23T05:12:29.561Z,99924.50
2022-12-23T05:15:32.999Z,99929.78
2022-12-23T05:18:35.687Z,99937.78
2022-12-23T05:21:39.643Z,99942.31
2022-12-23T05:24:42.211Z,99948.44
2022-12-23T05:27:44.789Z,99939.59
2022-12-23T05:30:47.573Z,99940.59
2022-12-23T05:33:50.241Z,99938.16
2022-12-23T05:36:54.297Z,99943.31
2022-12-23T05:39:56.879Z,99941.19
2022-12-23T05:43:00.188Z,99950.16
2022-12-23T05:46:02.857Z,99957.88
2022-12-23T05:49:05.479Z,99962.38
2022-12-23T05:52:09.413Z,99967.44
2022-12-23T05:55:11.987Z,99966.56
2022-12-23T05:58:14.673Z,99983.59
2022-12-23T06:01:17.342Z,99987.84
2022-12-23T06:04:20.280Z,99994.91
2022-12-23T06:07:24.254Z,100000.91
2022-12-23T06:10:26.839Z,99993.84
2022-12-23T06:13:29.443Z,99997.72
2022-12-23T06:16:32.122Z,99998.53
2022-12-23T06:19:34.732Z,99995.31
2022-12-23T06:22:38.737Z,99994.25
2022-12-23T06:25:41.356Z,99977.63
2022-12-23T06:28:43.987Z,99987.19
2022-12-23T06:31:46.641Z,100001.22
2022-12-23T06:34:53.112Z,99999.00
2022-12-23T06:37:57.097Z,99999.88
2022-12-23T06:40:59.713Z,100003.44
2022-12-23T06:44:02.291Z,100009.47
2022-12-23T06:47:04.966Z,100012.81
2022-12-23T06:50:09.026Z,100011.78
2022-12-23T06:53:13.281Z,100003.78
2022-12-23T06:56:15.867Z,100001.56
2022-12-23T06:59:18.475Z,100013.00
2022-12-23T07:02:21.241Z,99999.69
2022-12-23T07:05:23.993Z,100009.47
2022-12-23T07:08:27.939Z,100008.56
2022-12-23T07:11:30.686Z,100010.00
2022-12-23T07:14:33.266Z,100013.25
2022-12-23T07:17:36.155Z,100027.25
2022-12-23T07:20:38.807Z,100030.19
2022-12-23T07:23:42.751Z,100032.75
2022-12-23T07:26:45.337Z,100040.47
2022-12-23T07:29:47.900Z,100051.22
2022-12-23T07:32:51.109Z,100047.25
2022-12-23T07:35:59.015Z,100051.78
2022-12-23T07:39:02.957Z,100051.13
2022-12-23T07:45:29.666Z,100073.59
2022-12-23T07:48:32.294Z,100082.22
2022-12-23T07:51:35.030Z,100082.38
2022-12-23T07:54:40.051Z,100076.56
2022-12-23T07:57:42.628Z,100080.66
2022-12-23T08:00:45.281Z,100074.28
2022-12-23T08:03:48.578Z,100089.38
2022-12-23T08:06:51.199Z,100087.97
2022-12-23T08:09:55.187Z,100091.56
2022-12-23T08:13:00.958Z,100088.41
2022-12-23T08:16:05.384Z,100088.19
2022-12-23T08:19:08.022Z,100090.38
2022-12-23T08:22:10.611Z,100095.88
2022-12-23T08:25:14.831Z,100092.78
2022-12-23T08:28:17.401Z,100099.06
2022-12-23T08:31:23.071Z,100108.78
2022-12-23T08:34:26.175Z,100115.16
2022-12-23T08:37:28.756Z,100112.28
2022-12-23T08:40:32.787Z,100115.53
2022-12-23T08:43:36.139Z,100120.88
2022-12-23T08:46:39.469Z,100121.81
2022-12-23T08:49:42.105Z,100124.47
2022-12-23T08:52:44.757Z,100127.56
2022-12-23T08:55:49.752Z,100126.72
2022-12-23T08:58:54.641Z,100138.59
2022-12-23T09:01:59.670Z,100138.22
2022-12-23T09:05:02.453Z,100141.91
2022-12-23T09:08:05.423Z,100145.84
2022-12-23T09:11:11.339Z,100155.91
2022-12-23T09:14:15.241Z,100153.34
2022-12-23T09:17:18.216Z,100150.03
2022-12-23T09:20:20.818Z,100152.97
2022-12-23T09:23:23.426Z,100157.78
2022-12-23T09:26:29.206Z,100156.91
2022-12-23T09:29:31.777Z,100152.56
2022-12-23T09:32:34.362Z,100150.06
2022-12-23T09:35:36.993Z,100144.78
2022-12-23T09:38:39.551Z,100154.38
2022-12-23T09:42:01.393Z,100149.47
2022-12-23T09:45:14.442Z,100158.81
2022-12-23T09:48:21.375Z,100156.41
2022-12-23T09:51:24.683Z,100163.47
2022-12-23T09:54:29.746Z,100172.22
2022-12-23T09:57:38.122Z,100175.09
2022-12-23T10:00:44.727Z,100174.09
2022-12-23T10:04:15.811Z,100165.00
2022-12-23T10:07:26.940Z,100168.50
2022-12-23T10:10:35.930Z,100160.66
2022-12-23T10:13:43.035Z,100154.41
2022-12-23T10:16:49.288Z,100158.38
2022-12-23T10:19:52.588Z,100161.22
2022-12-23T10:22:58.082Z,100161.78
2022-12-23T10:26:04.750Z,100150.28
2022-12-23T10:29:19.248Z,100156.75
2022-12-23T10:32:33.350Z,100163.19
2022-12-23T10:35:50.395Z,100170.06
2022-12-23T10:39:02.525Z,100164.75
2022-12-23T10:42:18.103Z,100159.19
2022-12-23T10:45:33.810Z,100163.41
2022-12-23T10:48:49.650Z,100160.06
2022-12-23T10:51:57.737Z,100167.00
2022-12-23T10:55:00.328Z,100164.91
2022-12-23T10:58:08.499Z,100164.78
2022-12-23T11:01:26.215Z,100161.91
2022-12-23T11:04:35.426Z,100154.22
2022-12-23T11:07:46.192Z,100153.72
2022-12-23T11:10:49.894Z,100153.84
2022-12-23T11:13:52.523Z,100167.59
2022-12-23T11:16:56.501Z,100166.38
2022-12-23T11:20:13.747Z,100173.91
2022-12-23T11:23:26.913Z,100173.56
2022-12-23T11:26:29.520Z,100180.53
2022-12-23T11:29:35.123Z,100178.59
2022-12-23T11:32:39.135Z,100173.03
2022-12-23T11:35:41.806Z,100166.00
2022-12-23T11:38:50.656Z,100160.59
2022-12-23T11:41:55.809Z,100149.19
2022-12-23T11:45:00.851Z,100149.03
2022-12-23T11:48:06.088Z,100148.06
2022-12-23T11:51:08.696Z,100144.34
2022-12-23T11:54:17.179Z,100138.09
2022-12-23T11:57:24.487Z,100139.56
2022-12-23T12:00:30.248Z,100141.91
2022-12-23T12:03:36.516Z,100141.38
2022-12-23T12:06:48.429Z,100147.47
2022-12-23T12:09:58.272Z,100159.94
2022-12-23T12:13:06.076Z,100164.78
2022-12-23T12:16:23.406Z,100139.66
2022-12-23T12:19:32.755Z,100137.34
2022-12-23T12:22:42.390Z,100138.69
2022-12-23T12:25:50.526Z,100124.63
2022-12-23T12:28:59.373Z,100111.91
2022-12-23T12:32:03.187Z,100102.94
2022-12-23T12:35:13.750Z,100093.13
2022-12-23T12:38:22.799Z,100106.22
2022-12-23T12:41:30.187Z,100101.16
2022-12-23T12:44:39.158Z,100112.41
2022-12-23T12:47:58.477Z,100107.94
2022-12-23T12:51:17.720Z,100099.50
2022-12-23T12:54:27.868Z,100092.81
2022-12-23T12:57:33.209Z,100097.09
2022-12-23T13:00:48.930Z,100100.00
2022-12-23T13:04:12.019Z,100096.81
2022-12-23T13:07:24.453Z,100106.44
2022-12-23T13:10:38.080Z,100100.59
2022-12-23T13:13:51.094Z,100095.66
2022-12-23T13:17:03.701Z,100102.84
2022-12-23T13:20:15.969Z,100099.34
2022-12-23T13:23:43.392Z,100105.00
2022-12-23T13:26:58.763Z,100105.69
2022-12-23T13:30:06.797Z,100099.81
2022-12-23T13:33:22.612Z,100093.56
2022-12-23T13:36:42.303Z,100088.31
2022-12-23T13:39:56.808Z,100084.81
2022-12-23T13:43:05.840Z,100089.13
2022-12-23T13:46:16.954Z,100089.03
2022-12-23T13:49:25.748Z,100090.09
2022-12-23T13:52:39.836Z,100100.81
2022-12-23T13:56:09.626Z,100098.09
2022-12-23T13:59:13.960Z,100095.53
2022-12-23T14:02:44.459Z,100085.81
2022-12-23T14:05:50.521Z,100095.53
2022-12-23T14:08:55.117Z,100086.75
2022-12-23T14:12:11.578Z,100094.59
2022-12-23T14:15:48.965Z,100083.22
2022-12-23T14:19:23.974Z,100076.22
2022-12-23T14:22:40.087Z,100075.28
2022-12-23T14:26:04.600Z,100066.56
2022-12-23T14:29:38.206Z,100065.88
2022-12-23T14:32:47.993Z,100058.78
2022-12-23T14:35:53.898Z,100065.13
2022-12-23T14:39:32.471Z,100060.25
2022-12-23T14:42:36.544Z,100057.72
2022-12-23T14:45:44.799Z,100060.50
2022-12-23T14:49:38.332Z,100056.06
2022-12-23T14:53:00.462Z,100060.69
2022-12-23T14:56:21.594Z,100068.38
2022-12-23T14:59:35.272Z,100070.22
2022-12-23T15:02:41.781Z,100072.00
2022-12-23T15:05:44.708Z,100070.41
2022-12-23T15:08:49.973Z,100066.78
2022-12-23T15:11:54.596Z,100064.34
2022-12-23T15:15:00.246Z,100074.13
2022-12-23T15:18:06.569Z,100073.25
2022-12-23T15:21:13.063Z,100071.41
2022-12-23T15:24:17.772Z,100068.00
2022-12-23T15:27:30.074Z,100072.44
2022-12-23T15:30:36.979Z,100068.88
2022-12-23T15:37:04.837Z,100066.56
2022-12-23T15:40:23.163Z,100077.13
2022-12-23T15:43:25.879Z,100062.19
2022-12-23T15:46:30.480Z,100068.41
2022-12-23T15:49:34.771Z,100066.31
2022-12-23T15:52:40.258Z,100053.53
2022-12-23T15:55:43.055Z,100050.16
2022-12-23T15:58:45.747Z,100045.72
2022-12-23T16:01:48.622Z,100041.38
2022-12-23T16:04:57.219Z,100034.19
2022-12-23T16:08:28.478Z,100035.25
2022-12-23T16:11:42.500Z,100031.66
2022-12-23T16:14:53.456Z,100036.25
2022-12-23T16:18:14.854Z,100036.34
2022-12-23T16:21:18.785Z,100037.47
2022-12-23T16:24:21.839Z,100020.91
2022-12-23T16:27:34.354Z,100018.13
2022-12-23T16:30:39.261Z,100017.47
2022-12-23T16:33:44.604Z,99999.84
2022-12-23T16:36:48.617Z,100005.06
2022-12-23T16:39:51.260Z,100000.91
2022-12-23T16:42:53.852Z,99993.88
2022-12-23T16:45:58.236Z,99987.97
2022-12-23T16:49:04.763Z,99990.59
2022-12-23T16:52:14.081Z,99987.97
2022-12-23T16:55:18.976Z,99985.97
2022-12-23T16:58:21.586Z,99985.00
2022-12-23T17:01:26.828Z,99980.03
2022-12-23T17:04:29.440Z,99979.56
2022-12-23T17:07:33.382Z,99977.53
2022-12-23T17:10:36.681Z,99974.09
2022-12-23T17:13:39.639Z,99974.09
2022-12-23T17:16:42.283Z,99978.44
2022-12-23T17:19:44.970Z,99972.16
2022-12-23T17:22:52.018Z,99981.88
2022-12-23T17:25:55.023Z,99981.88
2022-12-23T17:28:57.593Z,99986.88
2022-12-23T17:32:00.243Z,99984.44
2022-12-23T17:35:02.864Z,99982.53
2022-12-23T17:38:13.290Z,99985.75
2022-12-23T17:41:23.352Z,99979.78
2022-12-23T17:44:25.995Z,99969.22
2022-12-23T17:47:28.624Z,99980.63
2022-12-23T17:50:34.213Z,99979.16
2022-12-23T17:53:38.163Z,99983.97
2022-12-23T17:56:40.783Z,99978.84
2022-12-23T17:59:47.705Z,99975.41
2022-12-23T18:02:51.365Z,99987.63
2022-12-23T18:06:01.208Z,99996.34
2022-12-23T18:09:06.149Z,99996.53
2022-12-23T18:12:24.904Z,99982.41
2022-12-23T18:15:34.520Z,99987.63
2022-12-23T18:18:45.827Z,99993.88
2022-12-23T18:21:49.797Z,99993.09
2022-12-23T18:24:58.904Z,99990.47
2022-12-23T18:28:02.031Z,99992.06
2022-12-23T18:31:04.795Z,99992.16
2022-12-23T18:34:07.463Z,99992.31
2022-12-23T18:37:10.112Z,99988.75
2022-12-23T18:40:14.463Z,99991.38
2022-12-23T18:43:20.688Z,99988.75
2022-12-23T18:46:23.343Z,99988.94
2022-12-23T18:49:25.976Z,99983.72
2022-12-23T18:52:28.552Z,99988.88
2022-12-23T18:55:32.749Z,99988.75
2022-12-23T18:58:35.360Z,99980.81
2022-12-23T19:01:37.968Z,99978.03
2022-12-23T19:04:40.600Z,99982.53
2022-12-23T19:07:43.422Z,99984.25
2022-12-23T19:10:48.645Z,99983.19
2022-12-23T19:13:51.539Z,99978.31
2022-12-23T19:16:54.146Z,99974.09
2022-12-23T19:19:56.742Z,99979.41
2022-12-23T19:22:59.372Z,99983.84
2022-12-23T19:26:05.764Z,99976.72
2022-12-23T19:29:08.431Z,99980.31
2022-12-23T19:32:11.019Z,99981.88
2022-12-23T19:35:15.236Z,99982.81
2022-12-23T19:38:17.853Z,99993.50
2022-12-23T19:41:21.793Z,99985.59
2022-12-23T19:44:24.405Z,99989.97
2022-12-23T19:47:26.980Z,99992.59
2022-12-23T19:50:29.603Z,99989.13
2022-12-23T19:53:32.362Z,99998.84
2022-12-23T19:56:36.342Z,99990.88
2022-12-23T19:59:38.924Z,99987.94
2022-12-23T20:02:41.604Z,99989.59
2022-12-23T20:05:48.484Z,99987.09
2022-12-23T20:08:56.356Z,99996.19
2022-12-23T20:12:04.795Z,99990.91
2022-12-23T20:15:08.478Z,100003.03
2022-12-23T20:18:11.059Z,99997.63
2022-12-23T20:21:14.152Z,99996.56
2022-12-23T20:24:16.944Z,100002.16
2022-12-23T20:27:26.021Z,100004.66
2022-12-23T20:30:30.570Z,100003.75
2022-12-23T20:33:33.164Z,100009.06
2022-12-23T20:36:37.437Z,100010.75
2022-12-23T20:39:40.122Z,100004.03
2022-12-23T20:42:44.410Z,100009.53
2022-12-23T20:45:47.223Z,100006.75
2022-12-23T20:48:50.423Z,100011.25
2022-12-23T20:51:53.001Z,100005.97
2022-12-23T20:54:56.494Z,100005.53
2022-12-23T20:58:20.597Z,100004.53
2022-12-23T21:01:24.472Z,100001.81
2022-12-23T21:04:27.288Z,100008.25
2022-12-23T21:07:29.889Z,100003.59
2022-12-23T21:10:32.580Z,99997.38
2022-12-23T21:13:37.001Z,99990.25
2022-12-23T21:16:40.745Z,99997.31
2022-12-23T21:19:43.477Z,100004.28
2022-12-23T21:22:46.258Z,100000.88
2022-12-23T21:25:48.850Z,99999.09
2022-12-23T21:28:54.569Z,100005.22
2022-12-23T21:31:57.248Z,100008.00
2022-12-23T21:35:01.505Z,100000.94
2022-12-23T21:38:04.125Z,100002.59
2022-12-23T21:41:08.614Z,100010.31
2022-12-23T21:44:14.503Z,100005.47
2022-12-23T21:47:17.261Z,100002.50
2022-12-23T21:50:20.020Z,100003.59
2022-12-23T21:53:22.845Z,100003.75
2022-12-23T21:56:28.662Z,100007.31
2022-12-23T21:59:35.203Z,100013.38
2022-12-23T22:02:38.222Z,100023.88
2022-12-23T22:05:40.889Z,100023.19
2022-12-23T22:08:44.174Z,100026.41
2022-12-23T22:11:47.864Z,100022.94
2022-12-23T22:14:51.848Z,100029.16
2022-12-23T22:17:54.449Z,100028.34
2022-12-23T22:20:57.037Z,100017.13
2022-12-23T22:24:00.565Z,100019.66
2022-12-23T22:27:03.300Z,100024.69
2022-12-23T22:30:08.739Z,100033.81
2022-12-23T22:33:11.306Z,100028.59
2022-12-23T22:36:15.000Z,100029.56
2022-12-23T22:39:21.700Z,100027.00
2022-12-23T22:42:24.695Z,100031.97
2022-12-23T22:45:28.645Z,100030.63
2022-12-23T22:48:31.585Z,100035.72
2022-12-23T22:51:34.257Z,100032.28
2022-12-23T22:54:36.835Z,100041.66
2022-12-23T22:57:39.484Z,100029.34
2022-12-23T23:00:43.404Z,100028.59
2022-12-23T23:03:45.966Z,100032.88
2022-12-23T23:06:49.104Z,100028.94
2022-12-23T23:09:51.705Z,100026.75
2022-12-23T23:12:54.271Z,100039.91
2022-12-23T23:15:59.013Z,100037.31
2022-12-23T23:19:02.020Z,100046.16
2022-12-23T23:22:04.628Z,100055.22
2022-12-23T23:25:07.961Z,100045.28
2022-12-23T23:28:11.683Z,100040.94
2022-12-23T23:34:38.284Z,100042.81
2022-12-23T23:37:40.860Z,100047.63
2022-12-23T23:40:43.446Z,100054.06
2022-12-23T23:43:46.017Z,100048.69
2022-12-23T23:46:50.043Z,100048.53
2022-12-23T23:49:52.728Z,100052.34
2022-12-23T23:52:55.776Z,100050.50
2022-12-23T23:56:02.690Z,100044.06
2022-12-23T23:59:05.355Z,100047.63
